Time;durP1;ratioP1;P1;durP2;ratioP2;P2;SDS_P1;SDS_P2;PMS_P1;PMS_P2;Temp;Humidity;BMP_temperature;BMP_pressure;BME280_temperature;BME280_humidity;BME280_pressure;Samples;Min_cycle;Max_cycle;Signal;HPM_P1;HPM_P2
2022/11/20 00:01:33;;;;;;;;;;;;;;;4.08;100.00;96890.38;107686;1267;71364;-69
2022/11/20 00:04:01;;;;;;;;;;;;;;;4.08;100.00;96883.64;107774;1263;69249;-69
2022/11/20 00:06:31;;;;;;;;;;;;;;;4.08;100.00;96877.57;107635;1269;69244;-69
2022/11/20 00:09:01;;;;;;;;;;;;;;;4.09;100.00;96874.95;107705;1269;59662;-69
2022/11/20 00:11:30;;;;;;;;;;;;;;;4.09;100.00;96874.41;107691;1269;59709;-71
2022/11/20 00:14:01;;;;;;;;;;;;;;;4.10;100.00;96873.00;107768;1268;71419;-69
2022/11/20 00:16:31;;;;;;;;;;;;;;;4.10;100.00;96873.17;107619;1269;69872;-70
2022/11/20 00:18:59;;;;;;;;;;;;;;;4.09;100.00;96869.63;107667;1269;68443;-70
2022/11/20 00:21:29;;;;;;;;;;;;;;;4.09;100.00;96868.05;107671;1269;59708;-70
2022/11/20 00:23:58;;;;;;;;;;;;;;;4.11;100.00;96870.36;107656;1263;59724;-70
2022/11/20 00:26:27;;;;;;;;;;;;;;;4.11;100.00;96875.57;107656;1269;69466;-69
2022/11/20 00:28:57;;;;;;;;;;;;;;;4.11;100.00;96879.02;107757;1267;69160;-70
2022/11/20 00:31:27;;;;;;;;;;;;;;;4.11;100.00;96877.23;107804;1267;69117;-70
2022/11/20 00:33:56;;;;;;;;;;;;;;;4.10;100.00;96882.15;107657;1269;59744;-70
2022/11/20 00:36:26;;;;;;;;;;;;;;;4.12;100.00;96885.18;107738;1269;59710;-70
2022/11/20 00:38:56;;;;;;;;;;;;;;;4.11;100.00;96880.36;107705;1262;69734;-70
2022/11/20 00:41:27;;;;;;;;;;;;;;;4.10;100.00;96871.27;107751;1269;69219;-70
2022/11/20 00:43:56;;;;;;;;;;;;;;;4.10;100.00;96860.95;107730;1265;69944;-70
2022/11/20 00:46:26;;;;;;;;;;;;;;;4.10;100.00;96851.09;107757;1269;59782;-70
2022/11/20 00:48:55;;;;;;;;;;;;;;;4.10;100.00;96854.56;107707;1267;59752;-70
2022/11/20 00:51:26;;;;;;;;;;;;;;;4.07;100.00;96853.51;107651;1262;71628;-70
2022/11/20 00:53:56;;;;;;;;;;;;;;;4.07;100.00;96850.21;107681;1267;69052;-69
2022/11/20 00:56:26;;;;;;;;;;;;;;;4.10;100.00;96845.95;107732;1268;69306;-70
2022/11/20 00:58:59;;;;;;;;;;;;;;;4.07;100.00;96840.25;107756;1265;59736;-70
2022/11/20 01:01:32;;;;;;;;;;;;;;;4.08;100.00;96834.30;107749;1267;59725;-70
2022/11/20 01:04:02;;;;;;;;;;;;;;;4.09;100.00;96828.76;107688;1270;71306;-70
2022/11/20 01:06:33;;;;;;;;;;;;;;;4.10;100.00;96834.35;107668;1263;68202;-70
2022/11/20 01:09:05;;;;;;;;;;;;;;;4.10;100.00;96830.76;107661;1269;69075;-70
2022/11/20 01:11:36;;;;;;;;;;;;;;;4.10;100.00;96828.66;107802;1269;59775;-70
2022/11/20 01:14:07;;;;;;;;;;;;;;;4.11;100.00;96825.35;107754;1269;60167;-70
2022/11/20 01:16:38;;;;;;;;;;;;;;;4.13;100.00;96825.41;107835;1267;71283;-69
2022/11/20 01:19:12;;;;;;;;;;;;;;;4.14;100.00;96827.11;107686;1269;68369;-70
2022/11/20 01:21:47;;;;;;;;;;;;;;;4.16;100.00;96822.64;107726;1267;69149;-71
2022/11/20 01:24:18;;;;;;;;;;;;;;;4.18;100.00;96815.47;107631;1269;60105;-71
2022/11/20 01:26:49;;;;;;;;;;;;;;;4.19;100.00;96812.66;107704;1265;59724;-69
2022/11/20 01:29:20;;;;;;;;;;;;;;;4.19;100.00;96816.81;107655;1269;71202;-69
2022/11/20 01:31:52;;;;;;;;;;;;;;;4.19;100.00;96812.66;107733;1265;69148;-70
2022/11/20 01:34:22;;;;;;;;;;;;;;;4.19;100.00;96809.23;107651;1267;69312;-70
2022/11/20 01:36:53;;;;;;;;;;;;;;;4.16;100.00;96807.83;107985;1265;59830;-70
2022/11/20 01:39:26;;;;;;;;;;;;;;;4.16;100.00;96808.73;109292;1268;58159;-72
2022/11/20 01:44:55;;;;;;;;;;;;;;;4.13;100.00;96805.23;107844;1267;69314;-70
2022/11/20 01:47:25;;;;;;;;;;;;;;;4.13;100.00;96805.44;107693;1263;69320;-70
2022/11/20 01:50:01;;;;;;;;;;;;;;;4.10;100.00;96798.48;107644;1268;59683;-70
2022/11/20 01:52:40;;;;;;;;;;;;;;;4.05;100.00;96782.42;107849;1270;59697;-70
2022/11/20 01:55:13;;;;;;;;;;;;;;;4.01;100.00;96779.54;107788;1265;71404;-70
2022/11/20 01:57:44;;;;;;;;;;;;;;;4.01;100.00;96774.04;107786;1269;67923;-70
2022/11/20 02:00:16;;;;;;;;;;;;;;;3.97;100.00;96770.08;107807;1265;67542;-70
2022/11/20 02:02:57;;;;;;;;;;;;;;;3.97;100.00;96761.98;107751;1268;59729;-70
2022/11/20 02:05:35;;;;;;;;;;;;;;;3.98;100.00;96759.02;107741;1267;59777;-70
2022/11/20 02:08:06;;;;;;;;;;;;;;;3.94;100.00;96758.22;107724;1266;71436;-70
2022/11/20 02:10:37;;;;;;;;;;;;;;;3.93;100.00;96758.09;107767;1267;69220;-70
2022/11/20 02:15:56;;;;;;;;;;;;;;;3.97;100.00;96760.80;107689;1269;59735;-70
2022/11/20 02:18:26;;;;;;;;;;;;;;;3.98;100.00;96760.36;107689;1269;59734;-70
2022/11/20 02:21:00;;;;;;;;;;;;;;;3.99;100.00;96753.06;107756;1263;70926;-70
2022/11/20 02:23:38;;;;;;;;;;;;;;;3.98;100.00;96743.15;107681;1265;69343;-70
2022/11/20 02:26:12;;;;;;;;;;;;;;;3.97;100.00;96744.57;107666;1267;69311;-70
2022/11/20 02:28:42;;;;;;;;;;;;;;;3.99;100.00;96729.81;107622;1269;59755;-70
2022/11/20 02:31:12;;;;;;;;;;;;;;;4.01;100.00;96719.36;107704;1266;59769;-70
2022/11/20 02:33:42;;;;;;;;;;;;;;;4.03;100.00;96717.01;107652;1269;71356;-70
2022/11/20 02:36:14;;;;;;;;;;;;;;;4.06;100.00;96712.85;107662;1269;68281;-70
2022/11/20 02:38:43;;;;;;;;;;;;;;;4.07;100.00;96707.14;107789;1268;67546;-70
2022/11/20 02:41:14;;;;;;;;;;;;;;;4.07;100.00;96709.89;107710;1268;59734;-69
2022/11/20 02:43:44;;;;;;;;;;;;;;;4.07;100.00;96715.91;107729;1265;59756;-69
2022/11/20 02:46:15;;;;;;;;;;;;;;;4.06;100.00;96713.20;107694;1265;70618;-69
2022/11/20 02:48:46;;;;;;;;;;;;;;;4.05;100.00;96704.63;107756;1267;69352;-69
2022/11/20 02:51:16;;;;;;;;;;;;;;;4.04;100.00;96701.39;107697;1267;69356;-69
2022/11/20 02:53:46;;;;;;;;;;;;;;;4.02;100.00;96703.92;107657;1265;59778;-69
2022/11/20 02:56:16;;;;;;;;;;;;;;;4.02;100.00;96698.60;107656;1267;59773;-69
2022/11/20 02:58:46;;;;;;;;;;;;;;;4.02;100.00;96698.61;107697;1269;71213;-69
2022/11/20 03:01:17;;;;;;;;;;;;;;;4.03;100.00;96697.84;107648;1269;69290;-70
2022/11/20 03:03:48;;;;;;;;;;;;;;;4.02;100.00;96691.55;107676;1269;68344;-70
2022/11/20 03:06:18;;;;;;;;;;;;;;;4.03;100.00;96700.59;107749;1269;59732;-69
2022/11/20 03:08:48;;;;;;;;;;;;;;;4.05;100.00;96697.38;107751;1265;59981;-69
2022/11/20 03:11:18;;;;;;;;;;;;;;;4.04;100.00;96687.94;107731;1268;71369;-69
2022/11/20 03:13:47;;;;;;;;;;;;;;;4.06;100.00;96690.97;107800;1265;68608;-69
2022/11/20 03:16:19;;;;;;;;;;;;;;;4.07;100.00;96686.44;107738;1267;69455;-69
2022/11/20 03:18:51;;;;;;;;;;;;;;;4.09;100.00;96680.80;107734;1265;59706;-69
2022/11/20 03:21:21;;;;;;;;;;;;;;;4.10;100.00;96676.23;107657;1265;59717;-69
2022/11/20 03:23:50;;;;;;;;;;;;;;;4.10;100.00;96669.88;107700;1269;72086;-69
2022/11/20 03:26:22;;;;;;;;;;;;;;;4.08;100.00;96665.30;107741;1265;69241;-69
2022/11/20 03:28:53;;;;;;;;;;;;;;;4.08;100.00;96648.77;107779;1269;69259;-69
2022/11/20 03:31:24;;;;;;;;;;;;;;;4.08;100.00;96640.65;107741;1265;59835;-69
2022/11/20 03:33:53;;;;;;;;;;;;;;;4.08;100.00;96635.45;107662;1268;59741;-69
2022/11/20 03:36:22;;;;;;;;;;;;;;;4.09;100.00;96632.33;107755;1265;71229;-69
2022/11/20 03:38:53;;;;;;;;;;;;;;;4.07;100.00;96633.65;107720;1267;69064;-70
2022/11/20 03:41:23;;;;;;;;;;;;;;;4.07;100.00;96635.55;107730;1267;69252;-69
2022/11/20 03:43:55;;;;;;;;;;;;;;;4.08;100.00;96641.54;107620;1267;59745;-69
2022/11/20 03:46:25;;;;;;;;;;;;;;;4.07;100.00;96638.11;107632;1267;59748;-69
2022/11/20 03:48:54;;;;;;;;;;;;;;;4.10;100.00;96634.18;107711;1263;71269;-69
2022/11/20 03:51:31;;;;;;;;;;;;;;;4.11;100.00;96635.98;107739;1269;68278;-69
2022/11/20 03:54:02;;;;;;;;;;;;;;;4.12;100.00;96634.40;107767;1269;69293;-69
2022/11/20 03:56:32;;;;;;;;;;;;;;;4.13;100.00;96630.36;107693;1266;59706;-69
2022/11/20 03:59:03;;;;;;;;;;;;;;;4.15;100.00;96624.92;107802;1267;59733;-69
2022/11/20 04:01:34;;;;;;;;;;;;;;;4.15;100.00;96630.59;107884;1270;70570;-69
2022/11/20 04:04:04;;;;;;;;;;;;;;;4.16;100.00;96632.30;107824;1269;69000;-69
2022/11/20 04:06:34;;;;;;;;;;;;;;;4.17;100.00;96637.73;107653;1269;68669;-69
2022/11/20 04:09:04;;;;;;;;;;;;;;;4.19;100.00;96643.46;107572;1266;59791;-69
2022/11/20 04:11:35;;;;;;;;;;;;;;;4.23;100.00;96651.55;107722;1265;59734;-69
2022/11/20 04:14:06;;;;;;;;;;;;;;;4.25;100.00;96654.85;107749;1267;71317;-69
2022/11/20 04:16:36;;;;;;;;;;;;;;;4.25;100.00;96650.87;107697;1263;68634;-70
2022/11/20 04:19:09;;;;;;;;;;;;;;;4.26;100.00;96640.33;107637;1265;69613;-69
2022/11/20 04:21:39;;;;;;;;;;;;;;;4.26;100.00;96630.79;107768;1265;59804;-69
2022/11/20 04:24:12;;;;;;;;;;;;;;;4.26;100.00;96629.60;107758;1266;59758;-69
2022/11/20 04:26:43;;;;;;;;;;;;;;;4.25;100.00;96623.95;107676;1269;70598;-69
2022/11/20 04:29:12;;;;;;;;;;;;;;;4.25;100.00;96608.95;107663;1267;68391;-71
2022/11/20 04:31:41;;;;;;;;;;;;;;;4.25;100.00;96597.56;107734;1269;69211;-70
2022/11/20 04:34:11;;;;;;;;;;;;;;;4.24;100.00;96593.66;107821;1263;59676;-69
2022/11/20 04:36:42;;;;;;;;;;;;;;;4.25;100.00;96587.41;107826;1269;59753;-69
2022/11/20 04:39:14;;;;;;;;;;;;;;;4.25;100.00;96587.37;107736;1269;70724;-71
2022/11/20 04:41:44;;;;;;;;;;;;;;;4.25;100.00;96568.77;107788;1264;68560;-69
2022/11/20 04:44:13;;;;;;;;;;;;;;;4.26;100.00;96558.34;107781;1268;68365;-69
2022/11/20 04:46:43;;;;;;;;;;;;;;;4.26;100.00;96568.56;107788;1265;59711;-70
2022/11/20 04:49:13;;;;;;;;;;;;;;;4.26;100.00;96574.59;107694;1264;59698;-70
2022/11/20 04:51:42;;;;;;;;;;;;;;;4.25;100.00;96548.75;107722;1268;72012;-69
2022/11/20 04:54:12;;;;;;;;;;;;;;;4.25;100.00;96558.05;107788;1269;69084;-69
2022/11/20 04:56:41;;;;;;;;;;;;;;;4.26;100.00;96565.98;107775;1263;68758;-69
2022/11/20 04:59:12;;;;;;;;;;;;;;;4.27;100.00;96574.84;107747;1269;59697;-69
2022/11/20 05:01:42;;;;;;;;;;;;;;;4.28;100.00;96582.05;107776;1266;59772;-69
2022/11/20 05:04:13;;;;;;;;;;;;;;;4.28;100.00;96567.73;107801;1269;71403;-68
2022/11/20 05:06:42;;;;;;;;;;;;;;;4.27;100.00;96567.60;107760;1268;69842;-69
2022/11/20 05:09:11;;;;;;;;;;;;;;;4.27;100.00;96588.30;107759;1265;69198;-69
2022/11/20 05:11:40;;;;;;;;;;;;;;;4.29;100.00;96598.38;107755;1269;59764;-69
2022/11/20 05:14:10;;;;;;;;;;;;;;;4.29;100.00;96591.98;107759;1269;59753;-69
2022/11/20 05:16:38;;;;;;;;;;;;;;;4.28;100.00;96577.20;107707;1266;70599;-69
2022/11/20 05:19:08;;;;;;;;;;;;;;;4.27;100.00;96567.97;107764;1269;69758;-70
2022/11/20 05:21:37;;;;;;;;;;;;;;;4.26;100.00;96574.90;107749;1269;69236;-69
2022/11/20 05:24:08;;;;;;;;;;;;;;;4.27;100.00;96569.02;107651;1269;59678;-69
2022/11/20 05:26:37;;;;;;;;;;;;;;;4.26;100.00;96575.41;107705;1269;59713;-69
2022/11/20 05:29:06;;;;;;;;;;;;;;;4.26;100.00;96583.73;107642;1269;71721;-69
2022/11/20 05:31:36;;;;;;;;;;;;;;;4.26;100.00;96577.69;107733;1269;69221;-69
2022/11/20 05:34:05;;;;;;;;;;;;;;;4.22;100.00;96576.01;107716;1270;69411;-69
2022/11/20 05:36:34;;;;;;;;;;;;;;;4.21;100.00;96568.88;107682;1269;59760;-69
2022/11/20 05:39:04;;;;;;;;;;;;;;;4.19;100.00;96569.98;107405;1273;59720;-69
2022/11/20 05:41:32;;;;;;;;;;;;;;;4.18;100.00;96576.98;107647;1267;71004;-69
2022/11/20 05:44:01;;;;;;;;;;;;;;;4.15;100.00;96584.71;107639;1270;70273;-70
2022/11/20 05:46:32;;;;;;;;;;;;;;;4.13;100.00;96578.17;107632;1269;69579;-69
2022/11/20 05:49:01;;;;;;;;;;;;;;;4.09;100.00;96570.95;107715;1269;59816;-69
2022/11/20 05:51:29;;;;;;;;;;;;;;;4.09;100.00;96571.09;107548;1268;59710;-69
2022/11/20 05:53:58;;;;;;;;;;;;;;;4.09;100.00;96575.05;107742;1270;71331;-69
2022/11/20 05:56:27;;;;;;;;;;;;;;;4.07;100.00;96576.56;107643;1266;69831;-69
2022/11/20 05:58:56;;;;;;;;;;;;;;;4.08;100.00;96583.11;107754;1269;69895;-69
2022/11/20 06:01:25;;;;;;;;;;;;;;;4.10;100.00;96590.54;107745;1269;59699;-69
2022/11/20 06:03:54;;;;;;;;;;;;;;;4.13;100.00;96592.96;107768;1270;59767;-69
2022/11/20 06:06:22;;;;;;;;;;;;;;;4.17;100.00;96595.86;107726;1269;71291;-69
2022/11/20 06:08:51;;;;;;;;;;;;;;;4.19;100.00;96599.34;107767;1267;69812;-69
2022/11/20 06:11:19;;;;;;;;;;;;;;;4.23;100.00;96609.63;107690;1270;69118;-69
2022/11/20 06:13:48;;;;;;;;;;;;;;;4.26;100.00;96612.51;107758;1269;59751;-69
2022/11/20 06:16:18;;;;;;;;;;;;;;;4.30;100.00;96617.09;107793;1269;59697;-69
2022/11/20 06:18:47;;;;;;;;;;;;;;;4.34;100.00;96620.30;107786;1269;71995;-70
2022/11/20 06:21:17;;;;;;;;;;;;;;;4.39;100.00;96624.84;107436;1270;68507;-69
2022/11/20 06:23:46;;;;;;;;;;;;;;;4.44;100.00;96627.34;107677;1271;69883;-69
2022/11/20 06:26:16;;;;;;;;;;;;;;;4.46;100.00;96619.95;107666;1271;59706;-68
2022/11/20 06:28:45;;;;;;;;;;;;;;;4.50;100.00;96608.11;107595;1271;59713;-70
2022/11/20 06:31:14;;;;;;;;;;;;;;;4.56;100.00;96599.84;107611;1272;71968;-69
2022/11/20 06:33:43;;;;;;;;;;;;;;;4.62;100.00;96596.52;107642;1270;68737;-69
2022/11/20 06:36:13;;;;;;;;;;;;;;;4.68;100.00;96586.84;107674;1270;69107;-69
2022/11/20 06:38:42;;;;;;;;;;;;;;;4.74;100.00;96580.08;107757;1270;59821;-70
2022/11/20 06:41:12;;;;;;;;;;;;;;;4.79;100.00;96577.84;107630;1270;59771;-69
2022/11/20 06:43:41;;;;;;;;;;;;;;;4.82;100.00;96578.16;107628;1266;71198;-70
2022/11/20 06:46:10;;;;;;;;;;;;;;;4.88;100.00;96579.04;107651;1268;68646;-69
2022/11/20 06:48:39;;;;;;;;;;;;;;;4.91;100.00;96577.08;107689;1270;69771;-71
2022/11/20 06:51:08;;;;;;;;;;;;;;;5.00;100.00;96583.29;107652;1268;59773;-70
2022/11/20 06:53:37;;;;;;;;;;;;;;;5.01;100.00;96591.50;107710;1270;59779;-71
2022/11/20 06:56:06;;;;;;;;;;;;;;;5.02;100.00;96593.46;107647;1270;71211;-71
2022/11/20 06:58:36;;;;;;;;;;;;;;;5.06;100.00;96603.92;107716;1270;69005;-71
2022/11/20 07:01:08;;;;;;;;;;;;;;;5.08;100.00;96602.23;107649;1271;68809;-71
2022/11/20 07:03:38;;;;;;;;;;;;;;;5.08;100.00;96600.16;107649;1271;59734;-71
2022/11/20 07:06:07;;;;;;;;;;;;;;;5.05;100.00;96605.02;107632;1270;59677;-70
2022/11/20 07:08:36;;;;;;;;;;;;;;;5.01;100.00;96616.16;107659;1270;71407;-71
2022/11/20 07:11:06;;;;;;;;;;;;;;;5.04;100.00;96622.02;107602;1272;69120;-71
2022/11/20 07:13:35;;;;;;;;;;;;;;;5.04;100.00;96628.75;107127;1268;656207;-71
2022/11/20 07:16:06;;;;;;;;;;;;;;;5.07;100.00;96626.98;107597;1270;59753;-71
2022/11/20 07:18:34;;;;;;;;;;;;;;;5.08;100.00;96627.63;107622;1270;59952;-71
2022/11/20 07:21:04;;;;;;;;;;;;;;;5.08;100.00;96632.13;107727;1269;71911;-71
2022/11/20 07:23:34;;;;;;;;;;;;;;;5.09;100.00;96638.11;107742;1270;69070;-71
2022/11/20 07:26:03;;;;;;;;;;;;;;;5.06;100.00;96637.25;107725;1265;69078;-71
2022/11/20 07:28:32;;;;;;;;;;;;;;;5.07;100.00;96643.58;107740;1269;59850;-72
2022/11/20 07:31:01;;;;;;;;;;;;;;;5.08;100.00;96639.37;107778;1270;59674;-71
2022/11/20 07:33:30;;;;;;;;;;;;;;;5.07;100.00;96638.75;107877;1269;72023;-70
2022/11/20 07:35:59;;;;;;;;;;;;;;;5.12;100.00;96632.09;107781;1265;69313;-71
2022/11/20 07:38:28;;;;;;;;;;;;;;;5.16;100.00;96620.95;107767;1270;69195;-71
2022/11/20 07:41:01;;;;;;;;;;;;;;;5.21;100.00;96615.94;107770;1269;59785;-71
2022/11/20 07:43:30;;;;;;;;;;;;;;;5.30;100.00;96615.86;107772;1268;59767;-71
2022/11/20 07:46:03;;;;;;;;;;;;;;;5.33;100.00;96613.07;107709;1270;71227;-71
2022/11/20 07:48:32;;;;;;;;;;;;;;;5.32;100.00;96604.31;107762;1269;69708;-70
2022/11/20 07:51:00;;;;;;;;;;;;;;;5.40;100.00;96601.92;107689;1269;68794;-70
2022/11/20 07:53:29;;;;;;;;;;;;;;;5.48;100.00;96595.86;107737;1270;59675;-71
2022/11/20 07:56:01;;;;;;;;;;;;;;;5.55;100.00;96595.06;107680;1270;59671;-71
2022/11/20 07:58:32;;;;;;;;;;;;;;;5.67;100.00;96603.49;107668;1269;70769;-71
2022/11/20 08:01:05;;;;;;;;;;;;;;;5.74;100.00;96605.43;107673;1269;69039;-71
2022/11/20 08:03:34;;;;;;;;;;;;;;;5.76;100.00;96597.99;107746;1269;69853;-71
2022/11/20 08:06:02;;;;;;;;;;;;;;;5.80;100.00;96590.86;107661;1270;59708;-71
2022/11/20 08:08:31;;;;;;;;;;;;;;;5.83;100.00;96602.55;107682;1269;59711;-71
2022/11/20 08:16:36;;;;;;;;;;;;;;;5.95;100.00;96616.15;107819;1269;69228;-71
2022/11/20 08:19:05;;;;;;;;;;;;;;;5.96;100.00;96619.73;107746;1268;59774;-71
2022/11/20 08:21:33;;;;;;;;;;;;;;;5.94;100.00;96628.52;107735;1270;59764;-71
2022/11/20 08:24:05;;;;;;;;;;;;;;;5.96;100.00;96635.95;107753;1268;71345;-71
2022/11/20 08:26:35;;;;;;;;;;;;;;;5.97;100.00;96640.04;107732;1269;69426;-70
2022/11/20 08:29:04;;;;;;;;;;;;;;;6.02;100.00;96634.02;107673;1270;69768;-70
2022/11/20 08:31:32;;;;;;;;;;;;;;;6.08;100.00;96631.20;107736;1265;59725;-70
2022/11/20 08:34:21;;;;;;;;;;;;;;;6.09;100.00;96633.34;107635;1270;59729;-70
2022/11/20 08:36:49;;;;;;;;;;;;;;;6.11;100.00;96630.25;107733;1270;70864;-70
2022/11/20 08:39:18;;;;;;;;;;;;;;;6.06;100.00;96629.80;107768;1265;68070;-70
2022/11/20 08:41:47;;;;;;;;;;;;;;;6.05;100.00;96636.42;107663;1270;69154;-70
2022/11/20 08:44:15;;;;;;;;;;;;;;;6.05;100.00;96634.52;107665;1270;59729;-70
2022/11/20 08:46:46;;;;;;;;;;;;;;;6.06;100.00;96637.73;107674;1269;59762;-70
2022/11/20 08:49:14;;;;;;;;;;;;;;;6.12;100.00;96639.75;107660;1269;70609;-70
2022/11/20 08:51:43;;;;;;;;;;;;;;;6.13;100.00;96637.44;107718;1271;69521;-71
2022/11/20 08:54:13;;;;;;;;;;;;;;;6.10;100.00;96650.09;107674;1264;69166;-71
2022/11/20 08:56:41;;;;;;;;;;;;;;;6.13;100.00;96649.16;107664;1269;59691;-70
2022/11/20 08:59:10;;;;;;;;;;;;;;;6.08;100.00;96646.54;107667;1269;59828;-70
2022/11/20 09:01:58;;;;;;;;;;;;;;;6.06;100.00;96639.59;107731;1268;71366;-70
2022/11/20 09:04:27;;;;;;;;;;;;;;;6.10;100.00;96638.84;107687;1269;69165;-70
2022/11/20 09:06:55;;;;;;;;;;;;;;;6.14;100.00;96641.50;107682;1269;69506;-70
2022/11/20 09:09:24;;;;;;;;;;;;;;;6.12;100.00;96647.02;107754;1259;59767;-71
2022/11/20 09:11:53;;;;;;;;;;;;;;;6.18;100.00;96644.58;107792;1269;59764;-70
2022/11/20 09:14:24;;;;;;;;;;;;;;;6.22;100.00;96646.33;107663;1270;71388;-70
2022/11/20 09:16:53;;;;;;;;;;;;;;;6.25;100.00;96651.34;107693;1271;69006;-70
2022/11/20 09:19:21;;;;;;;;;;;;;;;6.29;100.00;96652.48;107721;1273;70001;-70
2022/11/20 09:22:05;;;;;;;;;;;;;;;6.33;100.00;96662.71;107684;1270;59740;-70
2022/11/20 09:24:34;;;;;;;;;;;;;;;6.37;100.00;96668.86;107618;1270;59658;-70
2022/11/20 09:27:03;;;;;;;;;;;;;;;6.40;100.00;96672.12;107655;1269;71988;-70
2022/11/20 09:29:31;;;;;;;;;;;;;;;6.28;100.00;96674.97;107728;1270;68394;-70
2022/11/20 09:32:00;;;;;;;;;;;;;;;6.27;100.00;96671.48;107621;1269;69934;-69
2022/11/20 09:34:29;;;;;;;;;;;;;;;6.30;100.00;96668.27;107644;1270;59717;-69
2022/11/20 09:36:57;;;;;;;;;;;;;;;6.33;100.00;96664.66;107710;1269;59707;-69
2022/11/20 09:39:31;;;;;;;;;;;;;;;6.38;100.00;96665.87;107749;1270;71315;-69
2022/11/20 09:42:19;;;;;;;;;;;;;;;6.45;100.00;96659.66;107719;1270;68744;-69
2022/11/20 09:44:53;;;;;;;;;;;;;;;6.53;100.00;96658.55;107647;1270;68561;-69
2022/11/20 09:47:33;;;;;;;;;;;;;;;6.63;100.00;96662.61;107624;1269;59768;-69
2022/11/20 09:50:07;;;;;;;;;;;;;;;6.67;100.00;96659.19;107640;1270;59760;-69
2022/11/20 09:52:35;;;;;;;;;;;;;;;6.76;100.00;96656.99;107701;1269;71238;-69
2022/11/20 09:55:09;;;;;;;;;;;;;;;6.85;100.00;96653.98;107750;1270;69815;-69
2022/11/20 09:57:39;;;;;;;;;;;;;;;6.95;100.00;96659.70;107683;1269;70008;-70
2022/11/20 10:00:12;;;;;;;;;;;;;;;7.05;100.00;96655.64;107667;1271;59795;-70
2022/11/20 10:02:41;;;;;;;;;;;;;;;7.16;100.00;96655.23;107758;1270;59633;-70
2022/11/20 10:05:23;;;;;;;;;;;;;;;7.25;100.00;96663.42;107869;1269;71664;-71
2022/11/20 10:07:57;;;;;;;;;;;;;;;7.33;100.00;96664.26;107645;1268;68690;-70
2022/11/20 10:10:26;;;;;;;;;;;;;;;7.38;99.92;96661.79;107724;1271;69574;-69
2022/11/20 10:13:06;;;;;;;;;;;;;;;7.41;99.22;96658.84;107668;1270;59783;-70
2022/11/20 10:15:41;;;;;;;;;;;;;;;7.38;96.66;96649.31;107467;1273;59851;-70
2022/11/20 10:18:12;;;;;;;;;;;;;;;7.35;96.51;96643.86;107725;1270;70788;-70
2022/11/20 10:20:48;;;;;;;;;;;;;;;7.35;96.96;96637.74;107716;1270;68734;-70
2022/11/20 10:23:17;;;;;;;;;;;;;;;7.34;96.66;96639.89;107662;1270;68380;-70
2022/11/20 10:26:03;;;;;;;;;;;;;;;7.32;96.53;96638.13;107666;1269;59771;-71
2022/11/20 10:28:44;;;;;;;;;;;;;;;7.32;96.61;96640.09;107866;1270;60074;-71
2022/11/20 10:31:34;;;;;;;;;;;;;;;7.29;96.91;96638.41;107849;1273;71775;-69
2022/11/20 10:34:06;;;;;;;;;;;;;;;7.21;97.20;96643.33;107680;1269;69193;-70
2022/11/20 10:37:09;;;;;;;;;;;;;;;7.19;97.81;96644.13;107650;1270;69237;-69
2022/11/20 10:39:50;;;;;;;;;;;;;;;7.19;97.55;96642.40;107596;1271;59753;-69
2022/11/20 10:42:26;;;;;;;;;;;;;;;7.21;98.28;96643.08;107537;1273;59723;-69
2022/11/20 10:45:01;;;;;;;;;;;;;;;7.16;98.28;96647.77;107769;1268;72025;-70
2022/11/20 10:47:33;;;;;;;;;;;;;;;7.14;98.80;96638.18;107727;1271;69192;-69
2022/11/20 10:50:04;;;;;;;;;;;;;;;7.15;98.46;96637.65;107675;1270;68125;-69
2022/11/20 10:52:35;;;;;;;;;;;;;;;7.13;98.21;96644.38;107668;1266;59725;-69
2022/11/20 10:55:23;;;;;;;;;;;;;;;7.22;98.18;96645.63;107697;1269;59704;-69
2022/11/20 10:58:01;;;;;;;;;;;;;;;7.12;98.07;96634.54;107739;1270;72394;-69
2022/11/20 11:00:31;;;;;;;;;;;;;;;7.19;98.25;96635.13;107791;1270;69847;-69
2022/11/20 11:03:02;;;;;;;;;;;;;;;7.19;97.82;96643.44;107633;1269;68795;-69
2022/11/20 11:05:35;;;;;;;;;;;;;;;7.21;97.87;96647.81;107695;1270;59782;-69
2022/11/20 11:08:08;;;;;;;;;;;;;;;7.18;97.13;96649.23;107650;1266;59724;-69
2022/11/20 11:10:42;;;;;;;;;;;;;;;7.18;96.95;96660.81;107587;1268;71380;-69
2022/11/20 11:13:25;;;;;;;;;;;;;;;7.20;97.13;96664.99;107765;1266;69660;-69
2022/11/20 11:15:54;;;;;;;;;;;;;;;7.21;97.72;96665.46;107707;1270;68763;-68
2022/11/20 11:18:32;;;;;;;;;;;;;;;7.22;98.59;96656.73;107771;1270;59707;-69
2022/11/20 11:21:02;;;;;;;;;;;;;;;7.24;99.07;96655.02;107809;1265;59684;-69
2022/11/20 11:23:33;;;;;;;;;;;;;;;7.26;98.74;96654.35;107710;1266;70494;-69
2022/11/20 11:26:03;;;;;;;;;;;;;;;7.30;98.58;96649.56;107763;1266;69237;-70
2022/11/20 11:28:32;;;;;;;;;;;;;;;7.28;98.26;96643.82;107751;1269;68752;-70
2022/11/20 11:31:01;;;;;;;;;;;;;;;7.28;98.57;96637.28;107671;1269;59716;-70
2022/11/20 11:33:30;;;;;;;;;;;;;;;7.28;99.00;96631.84;107719;1268;59687;-70
2022/11/20 11:36:00;;;;;;;;;;;;;;;7.26;98.92;96628.56;107734;1269;70668;-70
2022/11/20 11:38:42;;;;;;;;;;;;;;;7.24;99.21;96626.92;107656;1271;69034;-70
2022/11/20 11:41:20;;;;;;;;;;;;;;;7.25;99.23;96628.46;107634;1269;68739;-70
2022/11/20 11:46:49;;;;;;;;;;;;;;;7.23;99.70;96639.55;107664;1267;59709;-70
2022/11/20 11:49:18;;;;;;;;;;;;;;;7.25;99.31;96637.83;107720;1265;70428;-70
2022/11/20 11:51:56;;;;;;;;;;;;;;;7.26;98.97;96634.30;107789;1269;69081;-70
2022/11/20 11:54:30;;;;;;;;;;;;;;;7.27;98.94;96638.17;107780;1269;69285;-70
2022/11/20 11:57:00;;;;;;;;;;;;;;;7.28;99.12;96639.48;107709;1270;59759;-70
2022/11/20 11:59:39;;;;;;;;;;;;;;;7.30;99.24;96641.08;107743;1269;59659;-70
2022/11/20 12:02:31;;;;;;;;;;;;;;;7.32;98.62;96639.71;107786;1269;72005;-70
2022/11/20 12:05:05;;;;;;;;;;;;;;;7.28;98.01;96641.02;107741;1267;68602;-70
2022/11/20 12:07:42;;;;;;;;;;;;;;;7.24;98.21;96638.22;107712;1268;69799;-70
2022/11/20 12:10:19;;;;;;;;;;;;;;;7.23;98.17;96628.90;107780;1266;59770;-70
2022/11/20 12:12:57;;;;;;;;;;;;;;;7.22;98.41;96631.42;107646;1266;59727;-70
2022/11/20 12:15:29;;;;;;;;;;;;;;;7.22;98.33;96631.11;107748;1270;70508;-70
2022/11/20 12:17:57;;;;;;;;;;;;;;;7.21;98.07;96629.44;107781;1270;69716;-70
2022/11/20 12:20:31;;;;;;;;;;;;;;;7.18;98.53;96624.95;107765;1270;69828;-70
2022/11/20 12:23:20;;;;;;;;;;;;;;;7.18;98.98;96618.05;107766;1264;59851;-71
2022/11/20 12:25:54;;;;;;;;;;;;;;;7.20;98.64;96616.69;107725;1269;59793;-70
2022/11/20 12:28:22;;;;;;;;;;;;;;;7.20;98.40;96617.36;107756;1268;71440;-70
2022/11/20 12:31:06;;;;;;;;;;;;;;;7.20;98.37;96616.33;107757;1267;69802;-70
2022/11/20 12:33:48;;;;;;;;;;;;;;;7.17;98.04;96620.88;107745;1270;69204;-70
2022/11/20 12:36:36;;;;;;;;;;;;;;;7.15;97.96;96615.27;107777;1269;59703;-70
2022/11/20 12:39:37;;;;;;;;;;;;;;;7.17;98.56;96611.01;107812;1270;59612;-70
2022/11/20 12:45:10;;;;;;;;;;;;;;;7.19;99.08;96618.16;107793;1270;69227;-70
2022/11/20 12:47:41;;;;;;;;;;;;;;;7.17;98.76;96634.93;107798;1266;69162;-70
2022/11/20 12:50:21;;;;;;;;;;;;;;;7.21;99.15;96640.19;107740;1270;59781;-70
2022/11/20 12:52:57;;;;;;;;;;;;;;;7.24;99.21;96639.09;107734;1268;59749;-70
2022/11/20 12:55:29;;;;;;;;;;;;;;;7.25;99.23;96640.23;107776;1270;71250;-70
2022/11/20 12:58:12;;;;;;;;;;;;;;;7.25;98.99;96630.17;107752;1270;68716;-70
2022/11/20 13:00:48;;;;;;;;;;;;;;;7.30;98.97;96632.42;107797;1270;69232;-71
2022/11/20 13:03:37;;;;;;;;;;;;;;;7.33;99.26;96635.00;107755;1270;59754;-70
2022/11/20 13:06:05;;;;;;;;;;;;;;;7.35;98.77;96635.32;107738;1268;59689;-70
2022/11/20 13:08:35;;;;;;;;;;;;;;;7.33;98.46;96629.76;107692;1270;72170;-70
2022/11/20 13:11:13;;;;;;;;;;;;;;;7.36;99.06;96623.84;107739;1267;68239;-70
2022/11/20 13:13:43;;;;;;;;;;;;;;;7.35;99.76;96617.47;107792;1266;68487;-70
2022/11/20 13:16:30;;;;;;;;;;;;;;;7.35;99.57;96614.69;107742;1270;60073;-70
2022/11/20 13:19:03;;;;;;;;;;;;;;;7.35;98.89;96621.13;107779;1266;59701;-70